createdAt,value
2023-01-19T00:01:12.042Z,1.93
2023-01-19T00:03:44.276Z,1.93
2023-01-19T00:06:17.308Z,1.96
2023-01-19T00:08:51.424Z,1.95
2023-01-19T00:11:23.762Z,1.96
2023-01-19T00:13:56.357Z,1.96
2023-01-19T00:16:29.136Z,1.96
2023-01-19T00:19:04.684Z,1.96
2023-01-19T00:21:37.650Z,1.95
2023-01-19T00:24:11.624Z,1.96
2023-01-19T00:26:43.417Z,1.98
2023-01-19T00:29:16.651Z,1.96
2023-01-19T00:31:49.696Z,1.96
2023-01-19T00:34:22.113Z,1.99
2023-01-19T00:36:54.647Z,1.99
2023-01-19T00:39:27.075Z,1.98
2023-01-19T00:42:17.947Z,1.96
2023-01-19T00:44:56.023Z,1.98
2023-01-19T00:47:32.452Z,1.99
2023-01-19T00:50:05.594Z,1.99
2023-01-19T00:52:38.628Z,1.98
2023-01-19T00:55:13.577Z,1.96
2023-01-19T00:57:46.565Z,1.95
2023-01-19T01:00:20.728Z,1.92
2023-01-19T01:02:54.770Z,1.93
2023-01-19T01:05:27.279Z,1.93
2023-01-19T01:08:00.990Z,1.96
2023-01-19T01:10:34.153Z,1.95
2023-01-19T01:13:20.313Z,1.95
2023-01-19T01:15:55.398Z,1.98
2023-01-19T01:18:28.203Z,1.93
2023-01-19T01:21:07.577Z,1.95
2023-01-19T01:23:40.324Z,1.95
2023-01-19T01:26:12.707Z,1.90
2023-01-19T01:28:45.900Z,1.90
2023-01-19T01:31:18.174Z,1.88
2023-01-19T01:33:50.950Z,1.85
2023-01-19T01:36:23.167Z,1.82
2023-01-19T01:38:55.785Z,1.81
2023-01-19T01:41:28.694Z,1.77
2023-01-19T01:44:08.774Z,1.71
2023-01-19T01:46:41.055Z,1.68
2023-01-19T01:49:17.320Z,1.64
2023-01-19T01:51:53.646Z,1.61
2023-01-19T01:54:30.381Z,1.55
2023-01-19T01:57:08.783Z,1.53
2023-01-19T01:59:46.855Z,1.47
2023-01-19T02:02:42.466Z,1.42
2023-01-19T02:05:18.726Z,1.39
2023-01-19T02:08:14.303Z,1.37
2023-01-19T02:11:05.562Z,1.33
2023-01-19T02:13:44.013Z,1.33
2023-01-19T02:16:18.292Z,1.34
2023-01-19T02:18:49.065Z,1.34
2023-01-19T02:21:24.646Z,1.37
2023-01-19T02:24:01.467Z,1.39
2023-01-19T02:26:36.776Z,1.37
2023-01-19T02:29:13.239Z,1.40
2023-01-19T02:31:46.550Z,1.42
2023-01-19T02:34:21.470Z,1.42
2023-01-19T02:36:59.451Z,1.43
2023-01-19T02:39:36.589Z,1.47
2023-01-19T02:42:12.297Z,1.50
2023-01-19T02:44:49.448Z,1.54
2023-01-19T02:47:26.219Z,1.58
2023-01-19T02:49:59.628Z,1.58
2023-01-19T02:52:33.956Z,1.64
2023-01-19T02:55:15.715Z,1.65
2023-01-19T02:58:05.718Z,1.68
2023-01-19T03:00:46.915Z,1.70
2023-01-19T03:03:32.314Z,1.72
2023-01-19T03:06:10.395Z,1.72
2023-01-19T03:08:50.086Z,1.75
2023-01-19T03:11:25.290Z,1.75
2023-01-19T03:14:05.691Z,1.81
2023-01-19T03:16:44.357Z,1.78
2023-01-19T03:19:23.445Z,1.82
2023-01-19T03:21:59.794Z,1.82
2023-01-19T03:24:38.110Z,1.82
2023-01-19T03:27:16.384Z,1.86
2023-01-19T03:29:54.936Z,1.83
2023-01-19T03:32:32.949Z,1.86
2023-01-19T03:35:13.672Z,1.88
2023-01-19T03:37:49.953Z,1.89
2023-01-19T03:40:23.878Z,1.90
2023-01-19T03:42:56.850Z,1.93
2023-01-19T03:45:32.988Z,1.93
2023-01-19T03:48:08.102Z,1.96
2023-01-19T03:50:41.346Z,1.99
2023-01-19T03:53:16.364Z,2.00
2023-01-19T03:55:53.151Z,2.03
2023-01-19T03:58:25.530Z,2.03
2023-01-19T04:00:58.043Z,2.03
2023-01-19T04:03:32.934Z,2.05
2023-01-19T04:06:06.306Z,2.03
2023-01-19T04:08:38.591Z,2.06
2023-01-19T04:11:11.830Z,2.07
2023-01-19T04:13:45.003Z,2.10
2023-01-19T04:16:20.422Z,2.10
2023-01-19T04:18:53.598Z,2.09
2023-01-19T04:21:26.532Z,2.10
2023-01-19T04:24:01.434Z,2.12
2023-01-19T04:26:34.149Z,2.12
2023-01-19T04:29:07.930Z,2.12
2023-01-19T04:31:40.427Z,2.12
2023-01-19T04:34:13.053Z,2.12
2023-01-19T04:36:47.434Z,2.16
2023-01-19T04:39:19.812Z,2.17
2023-01-19T04:41:53.242Z,2.16
2023-01-19T04:44:25.617Z,2.17
2023-01-19T04:46:59.315Z,2.17
2023-01-19T04:49:38.965Z,2.17
2023-01-19T04:52:11.708Z,2.20
2023-01-19T04:54:44.739Z,2.20
2023-01-19T04:57:17.444Z,2.24
2023-01-19T04:59:54.193Z,2.23
2023-01-19T05:02:27.076Z,2.24
2023-01-19T05:05:03.038Z,2.24
2023-01-19T05:07:35.813Z,2.27
2023-01-19T05:10:10.087Z,2.26
2023-01-19T05:12:45.860Z,2.27
2023-01-19T05:15:19.323Z,2.27
2023-01-19T05:17:52.996Z,2.29
2023-01-19T05:20:25.747Z,2.27
2023-01-19T05:22:58.914Z,2.30
2023-01-19T05:25:34.422Z,2.27
2023-01-19T05:28:07.327Z,2.27
2023-01-19T05:30:40.051Z,2.29
2023-01-19T05:33:13.069Z,2.32
2023-01-19T05:35:45.960Z,2.30
2023-01-19T05:38:29.361Z,2.32
2023-01-19T05:41:06.819Z,2.32
2023-01-19T05:43:39.145Z,2.29
2023-01-19T05:46:12.092Z,2.29
2023-01-19T05:48:45.952Z,2.27
2023-01-19T05:51:18.746Z,2.29
2023-01-19T05:53:52.358Z,2.29
2023-01-19T05:56:25.050Z,2.30
2023-01-19T05:58:57.491Z,2.29
2023-01-19T06:01:37.515Z,2.30
2023-01-19T06:04:13.964Z,2.30
2023-01-19T06:06:53.739Z,2.30
2023-01-19T06:09:27.461Z,2.30
2023-01-19T06:12:03.204Z,2.32
2023-01-19T06:14:37.332Z,2.32
2023-01-19T06:17:10.119Z,2.30
2023-01-19T06:19:44.759Z,2.29
2023-01-19T06:22:26.772Z,2.30
2023-01-19T06:25:00.069Z,2.29
2023-01-19T06:27:33.018Z,2.30
2023-01-19T06:30:08.647Z,2.27
2023-01-19T06:32:43.845Z,2.26
2023-01-19T06:35:17.613Z,2.27
2023-01-19T06:37:50.418Z,2.24
2023-01-19T06:40:23.255Z,2.26
2023-01-19T06:42:55.744Z,2.27
2023-01-19T06:45:28.984Z,2.27
2023-01-19T06:48:01.910Z,2.27
2023-01-19T06:50:34.431Z,2.27
2023-01-19T06:53:06.997Z,2.26
2023-01-19T06:55:40.180Z,2.29
2023-01-19T06:58:13.578Z,2.29
2023-01-19T07:00:47.136Z,2.30
2023-01-19T07:03:23.134Z,2.27
2023-01-19T07:05:57.252Z,2.27
2023-01-19T07:08:29.935Z,2.29
2023-01-19T07:11:26.446Z,2.27
2023-01-19T07:13:58.887Z,2.30
2023-01-19T07:16:41.531Z,2.29
2023-01-19T07:19:14.425Z,2.29
2023-01-19T07:21:47.045Z,2.30
2023-01-19T07:24:19.697Z,2.30
2023-01-19T07:26:52.240Z,2.29
2023-01-19T07:29:25.074Z,2.30
2023-01-19T07:31:58.940Z,2.33
2023-01-19T07:34:31.803Z,2.33
2023-01-19T07:37:05.385Z,2.33
2023-01-19T07:39:37.923Z,2.33
2023-01-19T07:42:11.308Z,2.37
2023-01-19T07:44:45.829Z,2.34
2023-01-19T07:47:21.393Z,2.38
2023-01-19T07:49:53.904Z,2.38
2023-01-19T07:52:27.047Z,2.38
2023-01-19T07:54:59.434Z,2.40
2023-01-19T07:57:33.473Z,2.40
2023-01-19T08:00:08.988Z,2.43
2023-01-19T08:02:50.057Z,2.40
2023-01-19T08:05:23.702Z,2.41
2023-01-19T08:07:57.980Z,2.44
2023-01-19T08:10:31.624Z,2.45
2023-01-19T08:13:04.616Z,2.48
2023-01-19T08:15:38.784Z,2.48
2023-01-19T08:18:11.917Z,2.48
2023-01-19T08:20:44.499Z,2.51
2023-01-19T08:23:18.511Z,2.54
2023-01-19T08:25:50.937Z,2.55
2023-01-19T08:28:23.922Z,2.55
2023-01-19T08:30:56.547Z,2.60
2023-01-19T08:33:29.147Z,2.62
2023-01-19T08:36:03.908Z,2.64
2023-01-19T08:38:36.541Z,2.67
2023-01-19T08:41:08.923Z,2.69
2023-01-19T08:43:41.591Z,2.72
2023-01-19T08:46:17.286Z,2.75
2023-01-19T08:48:50.899Z,2.78
2023-01-19T08:51:23.846Z,2.81
2023-01-19T08:53:56.361Z,2.82
2023-01-19T08:56:28.859Z,2.83
2023-01-19T08:59:09.833Z,2.89
2023-01-19T09:01:45.008Z,2.90
2023-01-19T09:04:17.812Z,2.89
2023-01-19T09:06:50.144Z,2.89
2023-01-19T09:09:23.026Z,2.92
2023-01-19T09:11:57.021Z,2.92
2023-01-19T09:14:29.655Z,2.92
2023-01-19T09:17:02.770Z,2.92
2023-01-19T09:19:35.251Z,2.90
2023-01-19T09:22:07.593Z,2.90
2023-01-19T09:24:40.002Z,2.92
2023-01-19T09:27:14.625Z,2.92
2023-01-19T09:29:53.083Z,2.89
2023-01-19T09:32:25.366Z,2.89
2023-01-19T09:35:01.572Z,2.90
2023-01-19T09:37:33.951Z,2.86
2023-01-19T09:40:11.701Z,2.88
2023-01-19T09:42:46.281Z,2.88
2023-01-19T09:45:27.054Z,2.92
2023-01-19T09:48:02.786Z,2.90
2023-01-19T09:50:42.920Z,2.93
2023-01-19T09:53:22.236Z,2.96
2023-01-19T09:55:54.905Z,2.98
2023-01-19T09:58:27.335Z,2.98
2023-01-19T10:01:09.323Z,2.98
2023-01-19T10:03:44.258Z,2.98
2023-01-19T10:06:18.634Z,2.98
2023-01-19T10:09:01.979Z,2.96
2023-01-19T10:11:52.625Z,2.96
2023-01-19T10:14:31.910Z,2.98
2023-01-19T10:17:15.789Z,2.98
2023-01-19T10:19:49.350Z,2.98
2023-01-19T10:22:26.505Z,2.96
2023-01-19T10:25:06.161Z,2.96
2023-01-19T10:27:39.537Z,2.98
2023-01-19T10:30:23.408Z,2.99
2023-01-19T10:32:56.621Z,3.02
2023-01-19T10:35:30.033Z,3.02
2023-01-19T10:38:04.878Z,3.06
2023-01-19T10:40:46.889Z,3.09
2023-01-19T10:43:41.803Z,3.07
2023-01-19T10:46:23.277Z,3.10
2023-01-19T10:48:57.844Z,3.11
2023-01-19T10:51:32.047Z,3.14
2023-01-19T10:54:13.199Z,3.11
2023-01-19T10:56:51.980Z,3.16
2023-01-19T10:59:39.885Z,3.16
2023-01-19T11:02:22.542Z,3.17
2023-01-19T11:04:57.440Z,3.17
2023-01-19T11:07:33.816Z,3.18
2023-01-19T11:10:24.747Z,3.21
2023-01-19T11:13:04.674Z,3.20
2023-01-19T11:15:44.016Z,3.21
2023-01-19T11:18:29.065Z,3.21
2023-01-19T11:21:07.318Z,3.23
2023-01-19T11:23:43.421Z,3.24
2023-01-19T11:26:27.245Z,3.23
2023-01-19T11:29:06.335Z,3.26
2023-01-19T11:34:32.978Z,3.32
2023-01-19T11:37:23.447Z,3.32
2023-01-19T11:39:58.966Z,3.34
2023-01-19T11:42:34.717Z,3.34
2023-01-19T11:45:17.246Z,3.32
2023-01-19T11:47:52.724Z,3.34
2023-01-19T11:50:35.812Z,3.32
2023-01-19T11:53:16.853Z,3.32
2023-01-19T11:55:55.101Z,3.31
2023-01-19T11:58:29.027Z,3.35
2023-01-19T12:01:09.200Z,3.34
2023-01-19T12:03:45.728Z,3.37
2023-01-19T12:06:22.002Z,3.37
2023-01-19T12:08:58.108Z,3.40
2023-01-19T12:11:38.091Z,3.40
2023-01-19T12:14:21.023Z,3.44
2023-01-19T12:16:58.054Z,3.47
2023-01-19T12:19:43.439Z,3.48
2023-01-19T12:22:19.982Z,3.50
2023-01-19T12:25:01.560Z,3.44
2023-01-19T12:27:41.744Z,3.48
2023-01-19T12:30:21.598Z,3.48
2023-01-19T12:32:53.964Z,3.48
2023-01-19T12:36:05.376Z,3.51
2023-01-19T12:38:48.985Z,3.54
2023-01-19T12:41:28.842Z,3.52
2023-01-19T12:44:21.435Z,3.57
2023-01-19T12:47:04.363Z,3.58
2023-01-19T12:49:44.374Z,3.57
2023-01-19T12:52:34.529Z,3.59
2023-01-19T12:55:18.849Z,3.58
2023-01-19T12:57:56.695Z,3.59
2023-01-19T13:00:35.524Z,3.57
2023-01-19T13:03:59.087Z,3.57
2023-01-19T13:36:23.886Z,3.52
2023-01-19T13:38:54.332Z,3.47
2023-01-19T13:41:26.857Z,3.47
2023-01-19T13:44:08.603Z,3.44
2023-01-19T13:46:42.396Z,3.43
2023-01-19T13:49:18.439Z,3.45
2023-01-19T13:52:03.223Z,3.45
2023-01-19T13:54:32.181Z,3.41
2023-01-19T13:57:01.789Z,3.41
2023-01-19T13:59:30.791Z,3.44
2023-01-19T14:02:12.508Z,3.41
2023-01-19T14:04:43.221Z,3.41
2023-01-19T14:07:25.677Z,3.41
2023-01-19T14:10:05.295Z,3.40
2023-01-19T14:12:37.600Z,3.40
2023-01-19T14:15:13.926Z,3.37
2023-01-19T14:17:42.882Z,3.35
2023-01-19T14:20:29.438Z,3.34
2023-01-19T14:22:58.479Z,3.32
2023-01-19T14:25:32.864Z,3.30
2023-01-19T14:28:27.131Z,3.27
2023-01-19T14:30:58.265Z,3.28
2023-01-19T14:33:45.696Z,3.27
2023-01-19T14:36:38.976Z,3.23
2023-01-19T14:39:21.731Z,3.24
2023-01-19T14:41:52.659Z,3.23
2023-01-19T14:44:28.586Z,3.20
2023-01-19T14:46:59.325Z,3.21
2023-01-19T14:49:35.437Z,3.18
2023-01-19T14:52:07.246Z,3.14
2023-01-19T14:54:40.436Z,3.14
2023-01-19T14:57:13.911Z,3.13
2023-01-19T14:59:49.852Z,3.11
2023-01-19T15:02:22.245Z,3.10
2023-01-19T15:04:54.744Z,3.09
2023-01-19T15:07:25.399Z,3.07
2023-01-19T15:09:55.087Z,3.04
2023-01-19T15:12:28.040Z,3.06
2023-01-19T15:15:02.356Z,3.03
2023-01-19T15:17:30.957Z,3.06
2023-01-19T15:20:01.577Z,3.03
2023-01-19T15:22:30.593Z,3.00
2023-01-19T15:25:00.887Z,3.03
2023-01-19T15:27:29.965Z,3.00
2023-01-19T15:30:02.555Z,3.00
2023-01-19T15:32:31.531Z,2.99
2023-01-19T15:35:02.721Z,2.99
2023-01-19T15:37:32.580Z,2.98
2023-01-19T15:40:03.235Z,2.99
2023-01-19T15:42:32.822Z,2.98
2023-01-19T15:45:18.260Z,2.96
2023-01-19T15:47:47.280Z,2.98
2023-01-19T15:50:16.887Z,2.95
2023-01-19T15:52:45.857Z,2.96
2023-01-19T15:55:17.608Z,2.93
2023-01-19T15:57:47.833Z,2.95
2023-01-19T16:00:20.576Z,2.96
2023-01-19T16:02:52.590Z,2.95
2023-01-19T16:05:26.003Z,2.95
2023-01-19T16:08:02.549Z,2.95
2023-01-19T16:10:31.506Z,2.93
2023-01-19T16:13:04.383Z,2.95
2023-01-19T16:15:35.834Z,2.93
2023-01-19T16:18:06.250Z,2.93
2023-01-19T16:20:35.196Z,2.92
2023-01-19T16:23:19.610Z,2.93
2023-01-19T16:25:56.190Z,2.93
2023-01-19T16:28:26.318Z,2.93
2023-01-19T16:30:59.208Z,2.93
2023-01-19T16:33:30.482Z,2.95
2023-01-19T16:35:59.515Z,2.95
2023-01-19T16:38:30.158Z,2.93
2023-01-19T16:40:59.962Z,2.93
2023-01-19T16:43:29.391Z,2.96
2023-01-19T16:46:02.716Z,2.96
2023-01-19T16:48:32.203Z,2.95
2023-01-19T16:51:06.013Z,2.98
2023-01-19T16:53:35.992Z,2.96
2023-01-19T16:56:07.340Z,2.98
2023-01-19T16:58:38.329Z,2.96
2023-01-19T17:01:13.174Z,2.95
2023-01-19T17:03:42.884Z,2.95
2023-01-19T17:06:14.027Z,2.93
2023-01-19T17:08:43.162Z,2.93
2023-01-19T17:11:15.441Z,2.92
2023-01-19T17:13:44.379Z,2.96
2023-01-19T17:16:13.714Z,2.90
2023-01-19T17:18:46.369Z,2.89
2023-01-19T17:21:17.362Z,2.90
2023-01-19T17:23:51.272Z,2.93
2023-01-19T17:26:21.278Z,2.89
2023-01-19T17:28:57.350Z,2.86
2023-01-19T17:31:26.313Z,2.88
2023-01-19T17:34:01.829Z,2.88
2023-01-19T17:36:32.929Z,2.86
2023-01-19T17:39:06.961Z,2.86
2023-01-19T17:41:36.355Z,2.85
2023-01-19T17:44:09.640Z,2.85
2023-01-19T17:46:42.651Z,2.85
2023-01-19T17:49:11.764Z,2.86
2023-01-19T17:51:40.979Z,2.85
2023-01-19T17:54:10.783Z,2.83
2023-01-19T17:56:40.778Z,2.82
2023-01-19T17:59:09.955Z,2.81
2023-01-19T18:01:41.937Z,2.82
2023-01-19T18:04:11.044Z,2.79
2023-01-19T18:06:40.688Z,2.81
2023-01-19T18:09:10.009Z,2.78
2023-01-19T18:11:42.388Z,2.79
2023-01-19T18:14:11.274Z,2.78
2023-01-19T18:16:43.621Z,2.76
2023-01-19T18:19:15.900Z,2.75
2023-01-19T18:21:47.899Z,2.73
2023-01-19T18:24:18.566Z,2.72
2023-01-19T18:26:47.624Z,2.72
2023-01-19T18:29:18.991Z,2.71
2023-01-19T18:31:47.919Z,2.71
2023-01-19T18:34:17.172Z,2.69
2023-01-19T18:36:46.155Z,2.67
2023-01-19T18:39:15.101Z,2.65
2023-01-19T18:41:43.945Z,2.65
2023-01-19T18:44:13.430Z,2.62
2023-01-19T18:46:43.228Z,2.61
2023-01-19T18:49:12.142Z,2.62
2023-01-19T18:51:42.676Z,2.61
2023-01-19T18:54:11.867Z,2.57
2023-01-19T18:56:42.257Z,2.55
2023-01-19T18:59:11.139Z,2.57
2023-01-19T19:01:43.343Z,2.54
2023-01-19T19:04:13.904Z,2.55
2023-01-19T19:06:43.734Z,2.54
2023-01-19T19:09:15.959Z,2.53
2023-01-19T19:11:44.956Z,2.53
2023-01-19T19:14:14.414Z,2.48
2023-01-19T19:16:43.827Z,2.51
2023-01-19T19:19:18.737Z,2.48
2023-01-19T19:21:48.455Z,2.47
2023-01-19T19:24:17.366Z,2.47
2023-01-19T19:26:46.562Z,2.43
2023-01-19T19:29:15.633Z,2.43
2023-01-19T19:31:45.632Z,2.41
2023-01-19T19:34:14.559Z,2.41
2023-01-19T19:36:43.554Z,2.40
2023-01-19T19:39:12.467Z,2.38
2023-01-19T19:41:44.154Z,2.38
2023-01-19T19:44:13.189Z,2.37
2023-01-19T19:46:44.836Z,2.33
2023-01-19T19:49:15.275Z,2.33
2023-01-19T19:51:44.265Z,2.30
2023-01-19T19:54:17.931Z,2.29
2023-01-19T19:56:49.877Z,2.29
2023-01-19T19:59:19.464Z,2.29
2023-01-19T20:01:53.288Z,2.27
2023-01-19T20:04:24.687Z,2.26
2023-01-19T20:06:53.948Z,2.26
2023-01-19T20:09:23.270Z,2.27
2023-01-19T20:11:52.356Z,2.26
2023-01-19T20:14:23.399Z,2.23
2023-01-19T20:16:53.829Z,2.23
2023-01-19T20:19:22.919Z,2.21
2023-01-19T20:21:52.140Z,2.17
2023-01-19T20:24:22.736Z,2.20
2023-01-19T20:26:54.250Z,2.16
2023-01-19T20:29:23.455Z,2.14
2023-01-19T20:31:55.319Z,2.13
2023-01-19T20:34:27.226Z,2.12
2023-01-19T20:36:57.396Z,2.10
2023-01-19T20:39:26.441Z,2.07
2023-01-19T20:41:55.596Z,2.05
2023-01-19T20:44:26.179Z,2.02
2023-01-19T20:46:55.533Z,2.05
2023-01-19T20:49:26.133Z,2.02
2023-01-19T20:51:55.039Z,2.00
2023-01-19T20:54:27.114Z,1.99
2023-01-19T20:56:56.513Z,1.98
2023-01-19T20:59:25.410Z,1.95
2023-01-19T21:01:54.736Z,1.96
2023-01-19T21:04:31.248Z,1.92
2023-01-19T21:07:02.977Z,1.89
2023-01-19T21:09:31.975Z,1.88
2023-01-19T21:12:01.621Z,1.86
2023-01-19T21:14:30.575Z,1.85
2023-01-19T21:16:59.472Z,1.82
2023-01-19T21:19:29.811Z,1.79
2023-01-19T21:21:58.690Z,1.78
2023-01-19T21:24:29.520Z,1.78
2023-01-19T21:26:58.468Z,1.77
2023-01-19T21:29:27.405Z,1.74
2023-01-19T21:31:56.342Z,1.75
2023-01-19T21:34:25.332Z,1.77
2023-01-19T21:36:55.000Z,1.74
2023-01-19T21:39:24.520Z,1.71
2023-01-19T21:41:56.977Z,1.72
2023-01-19T21:44:25.822Z,1.71
2023-01-19T21:46:55.321Z,1.68
2023-01-19T21:49:25.360Z,1.67
2023-01-19T21:51:55.880Z,1.68
2023-01-19T21:54:25.478Z,1.65
2023-01-19T21:56:55.712Z,1.65
2023-01-19T21:59:25.692Z,1.62
2023-01-19T22:01:56.097Z,1.61
2023-01-19T22:04:26.203Z,1.61
2023-01-19T22:06:55.459Z,1.60
2023-01-19T22:09:25.025Z,1.55
2023-01-19T22:11:55.398Z,1.55
2023-01-19T22:14:25.160Z,1.55
2023-01-19T22:16:57.651Z,1.54
2023-01-19T22:19:27.252Z,1.55
2023-01-19T22:21:56.246Z,1.54
2023-01-19T22:24:25.765Z,1.54
2023-01-19T22:26:56.916Z,1.53
2023-01-19T22:29:28.390Z,1.50
2023-01-19T22:32:01.361Z,1.51
2023-01-19T22:34:31.290Z,1.49
2023-01-19T22:37:07.823Z,1.46
2023-01-19T22:39:37.156Z,1.46
2023-01-19T22:42:06.010Z,1.43
2023-01-19T22:44:34.894Z,1.42
2023-01-19T22:47:03.764Z,1.39
2023-01-19T22:49:33.115Z,1.39
2023-01-19T22:52:02.732Z,1.36
2023-01-19T22:54:32.003Z,1.32
2023-01-19T22:57:01.765Z,1.32
2023-01-19T22:59:30.713Z,1.34
2023-01-19T23:02:00.630Z,1.29
2023-01-19T23:04:29.465Z,1.29
2023-01-19T23:06:58.332Z,1.29
2023-01-19T23:09:28.198Z,1.26
2023-01-19T23:11:58.233Z,1.27
2023-01-19T23:14:28.868Z,1.27
2023-01-19T23:16:57.679Z,1.26
2023-01-19T23:19:26.841Z,1.27
2023-01-19T23:21:55.726Z,1.25
2023-01-19T23:24:24.551Z,1.25
2023-01-19T23:26:53.387Z,1.25
2023-01-19T23:29:22.843Z,1.23
2023-01-19T23:31:52.965Z,1.23
2023-01-19T23:34:21.829Z,1.25
2023-01-19T23:36:50.742Z,1.25
2023-01-19T23:39:21.610Z,1.25
2023-01-19T23:41:50.924Z,1.20
2023-01-19T23:44:20.061Z,1.20
2023-01-19T23:46:48.890Z,1.20
2023-01-19T23:49:17.797Z,1.19
2023-01-19T23:51:46.916Z,1.20
2023-01-19T23:54:16.198Z,1.19
2023-01-19T23:56:45.445Z,1.18
2023-01-19T23:59:16.283Z,1.19
